Terminal Aerodrome Forecast
Issued by NWS

Home | Current Version | Previous Version | Text Only | Print | Product List | Glossary On
Versions: 1 2 3 4 5 6 7 8 9 10 11 12 13
803
FTUS46 KEKA 100545
TAFUKI
TAF
KUKI 100545Z 1006/1106 00000KT P6SM SCT200
     FM101300 00000KT 6SM BR FEW200
     FM101800 00000KT P6SM FEW200=

USA.gov is the U.S. government's official web portal to all federal, state and local government web resources and services.